sensor_id;sensor_type;location;lat;lon;timestamp;P1;durP1;ratioP1;P2;durP2;ratioP2
27580;SDS011;63557;52.302;7.964;2023-05-29T00:04:00;28.08;;;5.13;;
27580;SDS011;63557;52.302;7.964;2023-05-29T00:09:00;28.30;;;5.40;;
27580;SDS011;63557;52.302;7.964;2023-05-29T00:14:01;21.65;;;5.05;;
27580;SDS011;63557;52.302;7.964;2023-05-29T00:19:01;24.80;;;5.70;;
27580;SDS011;63557;52.302;7.964;2023-05-29T00:24:02;24.33;;;5.60;;
27580;SDS011;63557;52.302;7.964;2023-05-29T00:29:02;32.65;;;6.05;;
27580;SDS011;63557;52.302;7.964;2023-05-29T00:34:02;21.33;;;5.50;;
27580;SDS011;63557;52.302;7.964;2023-05-29T00:39:03;31.83;;;5.60;;
27580;SDS011;63557;52.302;7.964;2023-05-29T00:44:03;29.67;;;5.30;;
27580;SDS011;63557;52.302;7.964;2023-05-29T00:49:04;28.23;;;5.20;;
27580;SDS011;63557;52.302;7.964;2023-05-29T00:54:06;27.00;;;6.47;;
27580;SDS011;63557;52.302;7.964;2023-05-29T00:59:07;24.90;;;5.85;;
27580;SDS011;63557;52.302;7.964;2023-05-29T01:04:08;27.20;;;6.40;;
27580;SDS011;63557;52.302;7.964;2023-05-29T01:09:09;26.08;;;6.38;;
27580;SDS011;63557;52.302;7.964;2023-05-29T01:14:12;22.98;;;5.47;;
27580;SDS011;63557;52.302;7.964;2023-05-29T01:19:17;26.15;;;6.30;;
27580;SDS011;63557;52.302;7.964;2023-05-29T01:29:44;31.90;;;6.68;;
27580;SDS011;63557;52.302;7.964;2023-05-29T01:34:46;35.35;;;6.75;;
27580;SDS011;63557;52.302;7.964;2023-05-29T01:39:47;25.65;;;5.82;;
27580;SDS011;63557;52.302;7.964;2023-05-29T01:44:47;36.70;;;6.47;;
27580;SDS011;63557;52.302;7.964;2023-05-29T01:49:49;33.97;;;5.80;;
27580;SDS011;63557;52.302;7.964;2023-05-29T01:54:51;24.02;;;5.10;;
27580;SDS011;63557;52.302;7.964;2023-05-29T01:59:52;25.60;;;5.85;;
27580;SDS011;63557;52.302;7.964;2023-05-29T02:04:52;29.60;;;6.28;;
27580;SDS011;63557;52.302;7.964;2023-05-29T02:09:53;27.58;;;6.57;;
27580;SDS011;63557;52.302;7.964;2023-05-29T02:14:53;32.30;;;5.03;;
27580;SDS011;63557;52.302;7.964;2023-05-29T02:19:54;26.55;;;5.03;;
27580;SDS011;63557;52.302;7.964;2023-05-29T02:24:54;41.08;;;7.25;;
27580;SDS011;63557;52.302;7.964;2023-05-29T02:29:55;24.95;;;4.68;;
27580;SDS011;63557;52.302;7.964;2023-05-29T02:34:56;22.77;;;4.80;;
27580;SDS011;63557;52.302;7.964;2023-05-29T02:39:57;31.77;;;5.35;;
27580;SDS011;63557;52.302;7.964;2023-05-29T02:44:57;28.50;;;5.80;;
27580;SDS011;63557;52.302;7.964;2023-05-29T02:49:57;31.97;;;5.47;;
27580;SDS011;63557;52.302;7.964;2023-05-29T02:54:58;26.10;;;5.20;;
27580;SDS011;63557;52.302;7.964;2023-05-29T03:00:02;36.67;;;5.88;;
27580;SDS011;63557;52.302;7.964;2023-05-29T03:05:07;20.87;;;4.53;;
27580;SDS011;63557;52.302;7.964;2023-05-29T03:10:08;29.20;;;5.35;;
27580;SDS011;63557;52.302;7.964;2023-05-29T03:15:10;22.83;;;4.97;;
27580;SDS011;63557;52.302;7.964;2023-05-29T03:20:11;20.70;;;5.28;;
27580;SDS011;63557;52.302;7.964;2023-05-29T03:25:11;28.98;;;5.82;;
27580;SDS011;63557;52.302;7.964;2023-05-29T03:30:12;23.77;;;5.03;;
27580;SDS011;63557;52.302;7.964;2023-05-29T03:35:12;23.08;;;4.90;;
27580;SDS011;63557;52.302;7.964;2023-05-29T03:40:15;28.60;;;5.68;;
27580;SDS011;63557;52.302;7.964;2023-05-29T03:45:17;27.50;;;5.38;;
27580;SDS011;63557;52.302;7.964;2023-05-29T03:50:17;25.65;;;5.30;;
27580;SDS011;63557;52.302;7.964;2023-05-29T03:55:19;25.88;;;4.82;;
27580;SDS011;63557;52.302;7.964;2023-05-29T04:00:19;32.30;;;6.97;;
27580;SDS011;63557;52.302;7.964;2023-05-29T04:05:22;22.50;;;5.40;;
27580;SDS011;63557;52.302;7.964;2023-05-29T04:10:23;24.85;;;4.70;;
27580;SDS011;63557;52.302;7.964;2023-05-29T04:15:24;29.60;;;5.25;;
27580;SDS011;63557;52.302;7.964;2023-05-29T04:20:25;33.42;;;6.05;;
27580;SDS011;63557;52.302;7.964;2023-05-29T04:25:25;24.95;;;5.10;;
27580;SDS011;63557;52.302;7.964;2023-05-29T04:30:26;27.35;;;4.57;;
27580;SDS011;63557;52.302;7.964;2023-05-29T04:35:27;28.27;;;5.57;;
27580;SDS011;63557;52.302;7.964;2023-05-29T04:40:35;24.23;;;5.10;;
27580;SDS011;63557;52.302;7.964;2023-05-29T04:45:37;23.33;;;5.43;;
27580;SDS011;63557;52.302;7.964;2023-05-29T04:50:38;32.75;;;5.43;;
27580;SDS011;63557;52.302;7.964;2023-05-29T04:55:39;17.48;;;4.82;;
27580;SDS011;63557;52.302;7.964;2023-05-29T05:00:41;26.95;;;5.60;;
27580;SDS011;63557;52.302;7.964;2023-05-29T05:05:43;17.08;;;4.90;;
27580;SDS011;63557;52.302;7.964;2023-05-29T05:10:48;25.08;;;5.82;;
27580;SDS011;63557;52.302;7.964;2023-05-29T05:15:48;18.33;;;4.32;;
27580;SDS011;63557;52.302;7.964;2023-05-29T05:20:49;27.02;;;5.13;;
27580;SDS011;63557;52.302;7.964;2023-05-29T05:25:50;27.45;;;6.45;;
27580;SDS011;63557;52.302;7.964;2023-05-29T05:30:50;25.08;;;5.20;;
27580;SDS011;63557;52.302;7.964;2023-05-29T05:35:52;25.38;;;5.03;;
27580;SDS011;63557;52.302;7.964;2023-05-29T05:40:52;25.43;;;4.23;;
27580;SDS011;63557;52.302;7.964;2023-05-29T05:45:58;30.23;;;5.35;;
27580;SDS011;63557;52.302;7.964;2023-05-29T05:50:59;24.48;;;4.95;;
27580;SDS011;63557;52.302;7.964;2023-05-29T05:56:00;22.90;;;4.03;;
27580;SDS011;63557;52.302;7.964;2023-05-29T06:01:01;22.58;;;4.93;;
27580;SDS011;63557;52.302;7.964;2023-05-29T06:06:02;22.17;;;4.80;;
27580;SDS011;63557;52.302;7.964;2023-05-29T06:11:03;21.90;;;4.93;;
27580;SDS011;63557;52.302;7.964;2023-05-29T06:16:06;32.88;;;4.55;;
27580;SDS011;63557;52.302;7.964;2023-05-29T06:21:06;23.30;;;4.87;;
27580;SDS011;63557;52.302;7.964;2023-05-29T06:26:08;23.65;;;4.35;;
27580;SDS011;63557;52.302;7.964;2023-05-29T06:31:09;24.92;;;6.00;;
27580;SDS011;63557;52.302;7.964;2023-05-29T06:36:10;28.48;;;4.82;;
27580;SDS011;63557;52.302;7.964;2023-05-29T06:41:11;28.38;;;4.63;;
27580;SDS011;63557;52.302;7.964;2023-05-29T06:46:11;24.05;;;4.57;;
27580;SDS011;63557;52.302;7.964;2023-05-29T06:51:11;14.17;;;4.13;;
27580;SDS011;63557;52.302;7.964;2023-05-29T06:56:15;20.48;;;4.40;;
27580;SDS011;63557;52.302;7.964;2023-05-29T07:01:16;19.52;;;3.80;;
27580;SDS011;63557;52.302;7.964;2023-05-29T07:06:43;27.65;;;6.63;;
27580;SDS011;63557;52.302;7.964;2023-05-29T07:11:44;25.02;;;4.72;;
27580;SDS011;63557;52.302;7.964;2023-05-29T07:16:45;19.27;;;4.18;;
27580;SDS011;63557;52.302;7.964;2023-05-29T07:21:46;27.33;;;4.82;;
27580;SDS011;63557;52.302;7.964;2023-05-29T07:26:48;14.05;;;4.70;;
27580;SDS011;63557;52.302;7.964;2023-05-29T07:31:49;24.08;;;4.55;;
27580;SDS011;63557;52.302;7.964;2023-05-29T07:37:01;20.17;;;4.60;;
27580;SDS011;63557;52.302;7.964;2023-05-29T07:42:03;13.65;;;3.38;;
27580;SDS011;63557;52.302;7.964;2023-05-29T07:47:05;20.35;;;5.10;;
27580;SDS011;63557;52.302;7.964;2023-05-29T07:52:13;19.10;;;4.72;;
27580;SDS011;63557;52.302;7.964;2023-05-29T07:57:15;26.88;;;6.05;;
27580;SDS011;63557;52.302;7.964;2023-05-29T08:02:17;19.88;;;3.88;;
27580;SDS011;63557;52.302;7.964;2023-05-29T08:07:30;14.82;;;3.60;;
27580;SDS011;63557;52.302;7.964;2023-05-29T08:12:31;18.73;;;4.15;;
27580;SDS011;63557;52.302;7.964;2023-05-29T08:17:33;14.88;;;3.95;;
27580;SDS011;63557;52.302;7.964;2023-05-29T08:22:33;13.97;;;3.63;;
27580;SDS011;63557;52.302;7.964;2023-05-29T08:27:34;16.17;;;3.95;;
27580;SDS011;63557;52.302;7.964;2023-05-29T08:32:34;14.90;;;4.63;;
27580;SDS011;63557;52.302;7.964;2023-05-29T08:37:35;20.58;;;5.03;;
27580;SDS011;63557;52.302;7.964;2023-05-29T08:43:10;21.27;;;5.25;;
27580;SDS011;63557;52.302;7.964;2023-05-29T08:48:02;15.98;;;3.92;;
27580;SDS011;63557;52.302;7.964;2023-05-29T08:53:03;15.38;;;4.45;;
27580;SDS011;63557;52.302;7.964;2023-05-29T08:58:04;20.30;;;4.70;;
27580;SDS011;63557;52.302;7.964;2023-05-29T09:03:04;18.10;;;4.50;;
27580;SDS011;63557;52.302;7.964;2023-05-29T09:08:05;16.80;;;4.37;;
27580;SDS011;63557;52.302;7.964;2023-05-29T09:13:05;17.07;;;4.97;;
27580;SDS011;63557;52.302;7.964;2023-05-29T09:18:05;12.82;;;4.05;;
27580;SDS011;63557;52.302;7.964;2023-05-29T09:23:07;12.50;;;3.93;;
27580;SDS011;63557;52.302;7.964;2023-05-29T09:28:08;25.25;;;4.90;;
27580;SDS011;63557;52.302;7.964;2023-05-29T09:33:09;17.02;;;4.50;;
27580;SDS011;63557;52.302;7.964;2023-05-29T09:38:10;17.77;;;5.00;;
27580;SDS011;63557;52.302;7.964;2023-05-29T09:43:14;20.60;;;4.88;;
27580;SDS011;63557;52.302;7.964;2023-05-29T09:48:17;15.88;;;4.47;;
27580;SDS011;63557;52.302;7.964;2023-05-29T09:53:22;14.75;;;4.45;;
27580;SDS011;63557;52.302;7.964;2023-05-29T09:58:24;19.90;;;4.80;;
27580;SDS011;63557;52.302;7.964;2023-05-29T10:03:25;17.55;;;4.95;;
27580;SDS011;63557;52.302;7.964;2023-05-29T10:08:26;16.85;;;5.07;;
27580;SDS011;63557;52.302;7.964;2023-05-29T10:13:28;15.35;;;5.18;;
27580;SDS011;63557;52.302;7.964;2023-05-29T10:18:38;13.70;;;4.30;;
27580;SDS011;63557;52.302;7.964;2023-05-29T10:23:39;15.88;;;5.00;;
27580;SDS011;63557;52.302;7.964;2023-05-29T10:28:41;18.45;;;4.95;;
27580;SDS011;63557;52.302;7.964;2023-05-29T10:38:45;16.55;;;4.18;;
27580;SDS011;63557;52.302;7.964;2023-05-29T10:43:46;16.13;;;4.63;;
27580;SDS011;63557;52.302;7.964;2023-05-29T10:48:48;14.43;;;4.80;;
27580;SDS011;63557;52.302;7.964;2023-05-29T10:53:49;13.93;;;4.20;;
27580;SDS011;63557;52.302;7.964;2023-05-29T10:58:52;16.08;;;4.47;;
27580;SDS011;63557;52.302;7.964;2023-05-29T11:14:38;15.20;;;4.53;;
27580;SDS011;63557;52.302;7.964;2023-05-29T11:19:44;12.23;;;4.65;;
27580;SDS011;63557;52.302;7.964;2023-05-29T11:24:44;16.03;;;4.20;;
27580;SDS011;63557;52.302;7.964;2023-05-29T11:29:45;9.35;;;3.45;;
27580;SDS011;63557;52.302;7.964;2023-05-29T11:34:48;13.88;;;4.75;;
27580;SDS011;63557;52.302;7.964;2023-05-29T11:39:49;12.73;;;4.35;;
27580;SDS011;63557;52.302;7.964;2023-05-29T11:44:51;10.27;;;4.05;;
27580;SDS011;63557;52.302;7.964;2023-05-29T11:49:51;10.40;;;4.43;;
27580;SDS011;63557;52.302;7.964;2023-05-29T11:54:51;11.93;;;4.70;;
27580;SDS011;63557;52.302;7.964;2023-05-29T11:59:53;11.75;;;3.90;;
27580;SDS011;63557;52.302;7.964;2023-05-29T12:05:02;13.52;;;4.53;;
27580;SDS011;63557;52.302;7.964;2023-05-29T12:10:12;12.90;;;4.30;;
27580;SDS011;63557;52.302;7.964;2023-05-29T12:15:13;12.13;;;4.80;;
27580;SDS011;63557;52.302;7.964;2023-05-29T12:20:13;10.23;;;4.53;;
27580;SDS011;63557;52.302;7.964;2023-05-29T12:25:15;11.80;;;4.28;;
27580;SDS011;63557;52.302;7.964;2023-05-29T12:30:19;13.63;;;4.00;;
27580;SDS011;63557;52.302;7.964;2023-05-29T12:35:21;12.77;;;4.37;;
27580;SDS011;63557;52.302;7.964;2023-05-29T12:40:22;7.28;;;4.30;;
27580;SDS011;63557;52.302;7.964;2023-05-29T12:45:24;12.27;;;4.38;;
27580;SDS011;63557;52.302;7.964;2023-05-29T12:50:26;10.77;;;4.25;;
27580;SDS011;63557;52.302;7.964;2023-05-29T12:55:28;12.10;;;3.92;;
27580;SDS011;63557;52.302;7.964;2023-05-29T13:00:28;14.75;;;4.07;;
27580;SDS011;63557;52.302;7.964;2023-05-29T13:05:30;11.82;;;4.60;;
27580;SDS011;63557;52.302;7.964;2023-05-29T13:10:30;14.00;;;4.15;;
27580;SDS011;63557;52.302;7.964;2023-05-29T13:15:30;12.57;;;4.33;;
27580;SDS011;63557;52.302;7.964;2023-05-29T13:20:32;11.98;;;3.80;;
27580;SDS011;63557;52.302;7.964;2023-05-29T13:25:33;11.07;;;3.80;;
27580;SDS011;63557;52.302;7.964;2023-05-29T13:30:33;8.23;;;3.60;;
27580;SDS011;63557;52.302;7.964;2023-05-29T13:35:33;9.90;;;3.93;;
27580;SDS011;63557;52.302;7.964;2023-05-29T13:40:34;9.70;;;3.60;;
27580;SDS011;63557;52.302;7.964;2023-05-29T13:45:34;9.63;;;3.47;;
27580;SDS011;63557;52.302;7.964;2023-05-29T13:50:35;11.57;;;4.20;;
27580;SDS011;63557;52.302;7.964;2023-05-29T13:55:35;9.80;;;4.57;;
27580;SDS011;63557;52.302;7.964;2023-05-29T14:00:35;11.93;;;4.27;;
27580;SDS011;63557;52.302;7.964;2023-05-29T14:05:36;13.03;;;3.90;;
27580;SDS011;63557;52.302;7.964;2023-05-29T14:10:36;17.48;;;3.60;;
27580;SDS011;63557;52.302;7.964;2023-05-29T14:15:37;10.13;;;3.60;;
27580;SDS011;63557;52.302;7.964;2023-05-29T14:20:37;10.37;;;4.30;;
27580;SDS011;63557;52.302;7.964;2023-05-29T14:25:37;11.20;;;3.92;;
27580;SDS011;63557;52.302;7.964;2023-05-29T14:30:38;12.13;;;3.73;;
27580;SDS011;63557;52.302;7.964;2023-05-29T14:35:38;12.48;;;3.53;;
27580;SDS011;63557;52.302;7.964;2023-05-29T14:40:39;10.03;;;3.60;;
27580;SDS011;63557;52.302;7.964;2023-05-29T14:45:39;8.50;;;3.67;;
27580;SDS011;63557;52.302;7.964;2023-05-29T14:50:39;10.10;;;3.97;;
27580;SDS011;63557;52.302;7.964;2023-05-29T14:55:40;9.67;;;3.97;;
27580;SDS011;63557;52.302;7.964;2023-05-29T15:00:40;9.90;;;3.47;;
27580;SDS011;63557;52.302;7.964;2023-05-29T15:05:40;12.97;;;3.43;;
27580;SDS011;63557;52.302;7.964;2023-05-29T15:10:41;10.00;;;3.90;;
27580;SDS011;63557;52.302;7.964;2023-05-29T15:15:41;8.87;;;3.50;;
27580;SDS011;63557;52.302;7.964;2023-05-29T15:20:41;9.73;;;3.93;;
27580;SDS011;63557;52.302;7.964;2023-05-29T15:25:42;8.60;;;3.80;;
27580;SDS011;63557;52.302;7.964;2023-05-29T15:30:42;10.67;;;3.77;;
27580;SDS011;63557;52.302;7.964;2023-05-29T15:35:42;10.70;;;3.93;;
27580;SDS011;63557;52.302;7.964;2023-05-29T15:40:43;10.87;;;3.53;;
27580;SDS011;63557;52.302;7.964;2023-05-29T15:45:43;10.07;;;3.95;;
27580;SDS011;63557;52.302;7.964;2023-05-29T15:50:44;7.53;;;3.80;;
27580;SDS011;63557;52.302;7.964;2023-05-29T15:55:44;13.47;;;3.67;;
27580;SDS011;63557;52.302;7.964;2023-05-29T16:00:45;13.48;;;4.03;;
27580;SDS011;63557;52.302;7.964;2023-05-29T16:05:45;10.70;;;4.00;;
27580;SDS011;63557;52.302;7.964;2023-05-29T16:10:45;12.87;;;4.17;;
27580;SDS011;63557;52.302;7.964;2023-05-29T16:15:46;13.03;;;3.37;;
27580;SDS011;63557;52.302;7.964;2023-05-29T16:20:47;13.68;;;3.72;;
27580;SDS011;63557;52.302;7.964;2023-05-29T16:25:50;19.20;;;4.50;;
27580;SDS011;63557;52.302;7.964;2023-05-29T16:30:50;11.77;;;3.60;;
27580;SDS011;63557;52.302;7.964;2023-05-29T16:35:50;15.53;;;4.50;;
27580;SDS011;63557;52.302;7.964;2023-05-29T16:40:51;12.33;;;4.33;;
27580;SDS011;63557;52.302;7.964;2023-05-29T16:45:51;13.23;;;3.80;;
27580;SDS011;63557;52.302;7.964;2023-05-29T16:50:52;13.73;;;3.83;;
27580;SDS011;63557;52.302;7.964;2023-05-29T16:55:52;15.18;;;4.38;;
27580;SDS011;63557;52.302;7.964;2023-05-29T17:00:53;10.17;;;3.13;;
27580;SDS011;63557;52.302;7.964;2023-05-29T17:05:53;12.82;;;3.65;;
27580;SDS011;63557;52.302;7.964;2023-05-29T17:10:53;12.68;;;3.40;;
27580;SDS011;63557;52.302;7.964;2023-05-29T17:15:54;9.45;;;3.08;;
27580;SDS011;63557;52.302;7.964;2023-05-29T17:20:54;14.20;;;3.90;;
27580;SDS011;63557;52.302;7.964;2023-05-29T17:25:55;10.13;;;3.23;;
27580;SDS011;63557;52.302;7.964;2023-05-29T17:30:56;8.77;;;3.10;;
27580;SDS011;63557;52.302;7.964;2023-05-29T17:35:56;13.68;;;3.55;;
27580;SDS011;63557;52.302;7.964;2023-05-29T17:40:56;8.83;;;3.43;;
27580;SDS011;63557;52.302;7.964;2023-05-29T17:45:59;12.23;;;3.45;;
27580;SDS011;63557;52.302;7.964;2023-05-29T17:50:59;11.02;;;3.72;;
27580;SDS011;63557;52.302;7.964;2023-05-29T17:56:00;9.57;;;3.00;;
27580;SDS011;63557;52.302;7.964;2023-05-29T18:01:02;9.85;;;3.33;;
27580;SDS011;63557;52.302;7.964;2023-05-29T18:06:02;14.63;;;3.72;;
27580;SDS011;63557;52.302;7.964;2023-05-29T18:11:04;9.55;;;2.88;;
27580;SDS011;63557;52.302;7.964;2023-05-29T18:16:05;12.38;;;4.22;;
27580;SDS011;63557;52.302;7.964;2023-05-29T18:21:08;9.05;;;3.53;;
27580;SDS011;63557;52.302;7.964;2023-05-29T18:26:09;9.30;;;3.23;;
27580;SDS011;63557;52.302;7.964;2023-05-29T18:31:09;11.47;;;3.47;;
27580;SDS011;63557;52.302;7.964;2023-05-29T18:36:10;12.40;;;3.28;;
27580;SDS011;63557;52.302;7.964;2023-05-29T18:41:11;17.13;;;3.30;;
27580;SDS011;63557;52.302;7.964;2023-05-29T18:46:12;15.73;;;3.83;;
27580;SDS011;63557;52.302;7.964;2023-05-29T18:51:12;12.68;;;4.13;;
27580;SDS011;63557;52.302;7.964;2023-05-29T18:56:13;10.97;;;3.20;;
27580;SDS011;63557;52.302;7.964;2023-05-29T19:01:13;17.10;;;3.97;;
27580;SDS011;63557;52.302;7.964;2023-05-29T19:06:14;9.27;;;2.73;;
27580;SDS011;63557;52.302;7.964;2023-05-29T19:11:15;13.07;;;3.53;;
27580;SDS011;63557;52.302;7.964;2023-05-29T19:16:15;12.10;;;3.20;;
27580;SDS011;63557;52.302;7.964;2023-05-29T19:21:15;15.97;;;3.70;;
27580;SDS011;63557;52.302;7.964;2023-05-29T19:26:16;18.03;;;3.87;;
27580;SDS011;63557;52.302;7.964;2023-05-29T19:31:16;11.97;;;3.30;;
27580;SDS011;63557;52.302;7.964;2023-05-29T19:36:19;11.57;;;3.08;;
27580;SDS011;63557;52.302;7.964;2023-05-29T19:41:19;10.70;;;3.33;;
27580;SDS011;63557;52.302;7.964;2023-05-29T19:46:20;13.17;;;3.03;;
27580;SDS011;63557;52.302;7.964;2023-05-29T19:51:20;12.90;;;3.67;;
27580;SDS011;63557;52.302;7.964;2023-05-29T19:56:21;15.95;;;2.92;;
27580;SDS011;63557;52.302;7.964;2023-05-29T20:01:22;11.27;;;3.63;;
27580;SDS011;63557;52.302;7.964;2023-05-29T20:06:22;19.10;;;3.45;;
27580;SDS011;63557;52.302;7.964;2023-05-29T20:11:23;15.75;;;3.47;;
27580;SDS011;63557;52.302;7.964;2023-05-29T20:16:24;10.30;;;3.03;;
27580;SDS011;63557;52.302;7.964;2023-05-29T20:21:24;15.88;;;3.72;;
27580;SDS011;63557;52.302;7.964;2023-05-29T20:26:25;16.55;;;3.65;;
27580;SDS011;63557;52.302;7.964;2023-05-29T20:31:27;12.27;;;3.40;;
27580;SDS011;63557;52.302;7.964;2023-05-29T20:36:27;15.43;;;3.78;;
27580;SDS011;63557;52.302;7.964;2023-05-29T20:41:30;21.90;;;3.95;;
27580;SDS011;63557;52.302;7.964;2023-05-29T20:46:30;14.85;;;4.10;;
27580;SDS011;63557;52.302;7.964;2023-05-29T20:51:31;16.60;;;4.00;;
27580;SDS011;63557;52.302;7.964;2023-05-29T20:56:33;19.40;;;3.05;;
27580;SDS011;63557;52.302;7.964;2023-05-29T21:01:33;14.50;;;3.63;;
27580;SDS011;63557;52.302;7.964;2023-05-29T21:06:34;20.20;;;3.58;;
27580;SDS011;63557;52.302;7.964;2023-05-29T21:11:35;15.98;;;3.70;;
27580;SDS011;63557;52.302;7.964;2023-05-29T21:16:36;12.75;;;3.63;;
27580;SDS011;63557;52.302;7.964;2023-05-29T21:21:37;19.83;;;4.60;;
27580;SDS011;63557;52.302;7.964;2023-05-29T21:26:39;13.07;;;3.78;;
27580;SDS011;63557;52.302;7.964;2023-05-29T21:31:39;11.70;;;3.20;;
27580;SDS011;63557;52.302;7.964;2023-05-29T21:36:40;19.83;;;3.78;;
27580;SDS011;63557;52.302;7.964;2023-05-29T21:41:45;17.10;;;4.07;;
27580;SDS011;63557;52.302;7.964;2023-05-29T21:46:45;15.43;;;4.25;;
27580;SDS011;63557;52.302;7.964;2023-05-29T21:51:46;17.23;;;4.18;;
27580;SDS011;63557;52.302;7.964;2023-05-29T21:56:46;19.10;;;4.25;;
27580;SDS011;63557;52.302;7.964;2023-05-29T22:01:47;21.45;;;4.43;;
27580;SDS011;63557;52.302;7.964;2023-05-29T22:06:48;20.52;;;4.00;;
27580;SDS011;63557;52.302;7.964;2023-05-29T22:11:49;20.60;;;5.33;;
27580;SDS011;63557;52.302;7.964;2023-05-29T22:16:49;26.10;;;4.47;;
27580;SDS011;63557;52.302;7.964;2023-05-29T22:21:49;20.70;;;4.63;;
27580;SDS011;63557;52.302;7.964;2023-05-29T22:26:50;21.45;;;4.18;;
27580;SDS011;63557;52.302;7.964;2023-05-29T22:31:50;28.95;;;4.40;;
27580;SDS011;63557;52.302;7.964;2023-05-29T22:36:51;21.58;;;4.22;;
27580;SDS011;63557;52.302;7.964;2023-05-29T22:41:51;18.20;;;4.50;;
27580;SDS011;63557;52.302;7.964;2023-05-29T22:46:52;21.23;;;4.85;;
27580;SDS011;63557;52.302;7.964;2023-05-29T22:51:52;28.30;;;5.03;;
27580;SDS011;63557;52.302;7.964;2023-05-29T22:56:53;23.93;;;4.93;;
27580;SDS011;63557;52.302;7.964;2023-05-29T23:01:54;31.42;;;5.40;;
27580;SDS011;63557;52.302;7.964;2023-05-29T23:06:55;27.25;;;5.20;;
27580;SDS011;63557;52.302;7.964;2023-05-29T23:11:56;19.13;;;5.13;;
27580;SDS011;63557;52.302;7.964;2023-05-29T23:16:56;22.45;;;5.22;;
27580;SDS011;63557;52.302;7.964;2023-05-29T23:21:57;25.60;;;5.47;;
27580;SDS011;63557;52.302;7.964;2023-05-29T23:26:58;23.00;;;5.43;;
27580;SDS011;63557;52.302;7.964;2023-05-29T23:31:58;27.30;;;5.20;;
27580;SDS011;63557;52.302;7.964;2023-05-29T23:36:59;26.85;;;6.40;;
27580;SDS011;63557;52.302;7.964;2023-05-29T23:41:59;25.58;;;6.22;;
27580;SDS011;63557;52.302;7.964;2023-05-29T23:47:01;22.10;;;5.50;;
27580;SDS011;63557;52.302;7.964;2023-05-29T23:52:01;24.93;;;6.90;;
27580;SDS011;63557;52.302;7.964;2023-05-29T23:57:01;25.50;;;5.38;;
